Time;durP1;ratioP1;P1;durP2;ratioP2;P2;SDS_P1;SDS_P2;PMS_P1;PMS_P2;Temp;Humidity;BMP_temperature;BMP_pressure;BME280_temperature;BME280_humidity;BME280_pressure;Samples;Min_cycle;Max_cycle;Signal;HPM_P1;HPM_P2
2021/03/19 00:00:22;;;;;;;5.60;4.90;;;1.80;99.90;;;;;;5093374;28;20451;-79
2021/03/19 00:02:51;;;;;;;5.80;4.83;;;1.80;99.90;;;;;;5093365;28;20440;-78
2021/03/19 00:05:17;;;;;;;5.57;4.70;;;1.70;99.90;;;;;;5093403;28;20530;-78
2021/03/19 00:07:49;;;;;;;6.90;5.43;;;1.70;99.90;;;;;;5092934;28;20468;-79
2021/03/19 00:10:18;;;;;;;5.70;4.70;;;1.70;99.90;;;;;;5093008;28;20439;-79
2021/03/19 00:12:46;;;;;;;5.80;4.50;;;1.70;99.90;;;;;;5093269;28;20542;-79
2021/03/19 00:15:13;;;;;;;5.17;4.73;;;1.80;99.90;;;;;;5092867;28;20924;-78
2021/03/19 00:17:40;;;;;;;5.50;4.60;;;1.70;99.90;;;;;;5093289;28;20484;-78
2021/03/19 00:20:09;;;;;;;6.13;4.87;;;1.70;99.90;;;;;;5092858;28;20880;-79
2021/03/19 00:22:36;;;;;;;7.17;4.37;;;1.70;99.90;;;;;;5092888;28;20962;-79
2021/03/19 00:25:03;;;;;;;7.87;5.00;;;1.80;99.90;;;;;;5093217;28;20428;-78
2021/03/19 00:27:30;;;;;;;6.23;4.60;;;1.80;99.90;;;;;;5093026;28;20828;-78
2021/03/19 00:29:57;;;;;;;9.43;4.83;;;1.70;99.90;;;;;;5093126;28;20593;-78
2021/03/19 00:32:23;;;;;;;7.83;5.53;;;1.70;99.90;;;;;;5093055;28;20455;-79
2021/03/19 00:34:49;;;;;;;7.20;5.13;;;1.60;99.90;;;;;;5093593;28;20428;-86
2021/03/19 00:37:16;;;;;;;13.23;5.10;;;1.60;99.90;;;;;;5093008;28;20486;-78
2021/03/19 00:39:42;;;;;;;9.03;5.53;;;1.60;99.90;;;;;;5092926;28;20436;-78
2021/03/19 00:42:09;;;;;;;6.47;5.30;;;1.60;99.90;;;;;;5093088;28;20444;-78
2021/03/19 00:44:36;;;;;;;14.13;5.73;;;1.50;99.90;;;;;;5093017;28;20407;-78
2021/03/19 00:47:03;;;;;;;9.73;5.73;;;1.50;99.90;;;;;;5096375;28;20468;-78
2021/03/19 00:49:30;;;;;;;6.63;5.70;;;1.50;99.90;;;;;;5096455;28;20447;-78
2021/03/19 00:51:56;;;;;;;11.40;6.93;;;1.50;99.90;;;;;;5096379;28;20482;-78
2021/03/19 00:54:22;;;;;;;7.30;5.60;;;1.50;99.90;;;;;;5096467;28;20443;-78
2021/03/19 00:56:49;;;;;;;6.97;6.03;;;1.50;99.90;;;;;;5096206;28;20987;-79
2021/03/19 00:59:15;;;;;;;8.97;5.37;;;1.40;99.90;;;;;;5096597;28;20452;-78
2021/03/19 01:01:41;;;;;;;7.67;6.37;;;1.40;99.90;;;;;;5096546;28;20454;-78
2021/03/19 01:04:08;;;;;;;9.47;6.27;;;1.40;99.90;;;;;;5096478;28;20452;-78
2021/03/19 01:06:35;;;;;;;10.43;5.73;;;1.40;99.90;;;;;;5096133;28;20464;-78
2021/03/19 01:09:01;;;;;;;8.83;5.50;;;1.30;99.90;;;;;;5096413;28;20501;-78
2021/03/19 01:11:28;;;;;;;10.47;5.73;;;1.20;99.90;;;;;;5096614;28;20451;-78
2021/03/19 01:13:55;;;;;;;9.87;6.37;;;1.30;99.90;;;;;;5096362;28;20805;-78
2021/03/19 01:16:22;;;;;;;10.17;6.93;;;1.20;99.90;;;;;;5096297;28;20491;-78
2021/03/19 01:18:49;;;;;;;10.13;6.10;;;1.10;99.90;;;;;;5096157;28;20497;-79
2021/03/19 01:21:17;;;;;;;7.67;5.40;;;1.10;99.90;;;;;;5095892;28;20801;-78
2021/03/19 01:23:44;;;;;;;9.63;5.70;;;1.00;99.90;;;;;;5096089;28;20818;-78
2021/03/19 01:26:11;;;;;;;8.93;6.20;;;1.00;99.90;;;;;;5095995;28;20477;-78
2021/03/19 01:28:37;;;;;;;10.50;6.70;;;1.00;99.90;;;;;;5096181;28;20543;-78
2021/03/19 01:31:03;;;;;;;7.97;6.07;;;1.00;99.90;;;;;;5096007;28;20399;-79
2021/03/19 01:33:29;;;;;;;8.53;6.00;;;1.10;99.90;;;;;;5095939;28;20788;-78
2021/03/19 01:35:56;;;;;;;8.43;6.47;;;1.00;99.90;;;;;;5095759;28;20502;-78
2021/03/19 01:38:23;;;;;;;8.90;6.07;;;1.00;99.90;;;;;;5095747;28;20431;-78
2021/03/19 01:40:49;;;;;;;13.03;5.77;;;0.90;99.90;;;;;;5095776;28;20432;-78
2021/03/19 01:43:15;;;;;;;10.00;5.90;;;0.90;99.90;;;;;;5095855;28;20412;-78
2021/03/19 01:46:14;;;;;;;7.83;5.73;;;0.90;99.90;;;;;;5095497;28;20940;-78
2021/03/19 01:49:18;;;;;;;7.70;5.70;;;0.90;99.90;;;;;;5094652;28;20775;-85
2021/03/19 01:52:22;;;;;;;6.10;5.17;;;0.80;99.90;;;;;;5096233;28;20472;-86
2021/03/19 01:55:25;;;;;;;7.80;5.50;;;0.80;99.90;;;;;;5096053;28;20423;-87
2021/03/19 01:58:28;;;;;;;7.57;5.33;;;0.80;99.90;;;;;;5095535;28;20444;-86
2021/03/19 02:01:32;;;;;;;8.17;5.87;;;0.70;99.90;;;;;;5096092;28;20410;-86
2021/03/19 02:04:35;;;;;;;7.83;5.53;;;0.70;99.90;;;;;;5095675;28;20418;-78
2021/03/19 02:07:38;;;;;;;8.10;5.70;;;0.60;99.90;;;;;;5094886;28;20830;-79
2021/03/19 02:10:41;;;;;;;11.23;5.97;;;0.60;99.90;;;;;;5094999;28;20431;-79
2021/03/19 02:13:45;;;;;;;7.70;5.83;;;0.60;99.90;;;;;;5095148;28;20504;-78
2021/03/19 02:16:49;;;;;;;7.83;5.87;;;0.60;99.90;;;;;;5094651;28;20965;-79
2021/03/19 02:19:52;;;;;;;8.83;6.03;;;0.70;99.90;;;;;;5095104;28;20740;-78
2021/03/19 02:22:55;;;;;;;8.77;7.20;;;0.60;99.90;;;;;;5094913;28;20500;-79
2021/03/19 02:25:59;;;;;;;13.50;6.90;;;0.60;99.90;;;;;;5094758;28;20426;-78
2021/03/19 02:29:02;;;;;;;8.87;6.30;;;0.60;99.90;;;;;;5094575;28;20432;-78
2021/03/19 02:31:58;;;;;;;8.50;6.70;;;0.60;99.90;;;;;;5094855;28;20432;-78
2021/03/19 02:34:28;;;;;;;10.20;7.00;;;0.60;99.90;;;;;;5095261;28;21243;-78
2021/03/19 02:36:55;;;;;;;10.63;7.10;;;0.60;99.90;;;;;;5094607;28;20498;-78
2021/03/19 02:39:21;;;;;;;9.73;7.37;;;0.60;99.90;;;;;;5094710;28;20418;-78
2021/03/19 02:41:48;;;;;;;8.37;7.00;;;0.60;99.90;;;;;;5094288;28;20929;-78
2021/03/19 02:44:14;;;;;;;10.47;6.93;;;0.60;99.90;;;;;;5094605;28;20432;-79
2021/03/19 02:46:40;;;;;;;8.70;6.60;;;0.60;99.90;;;;;;5094344;28;20496;-79
2021/03/19 02:49:07;;;;;;;12.03;7.93;;;0.60;99.90;;;;;;5094180;28;20485;-78
2021/03/19 02:51:34;;;;;;;9.60;6.47;;;0.60;99.90;;;;;;5094167;28;20788;-78
2021/03/19 02:54:00;;;;;;;13.30;6.90;;;0.70;99.90;;;;;;5094036;28;20909;-79
2021/03/19 02:56:26;;;;;;;10.10;7.57;;;0.70;99.90;;;;;;5094479;28;20494;-79
2021/03/19 02:58:53;;;;;;;9.80;7.50;;;0.70;99.90;;;;;;5094479;28;20455;-87
2021/03/19 03:01:19;;;;;;;9.67;6.97;;;0.70;99.90;;;;;;5094939;28;20432;-87
2021/03/19 03:03:45;;;;;;;11.27;8.37;;;0.70;99.90;;;;;;5094947;28;20494;-87
2021/03/19 03:06:12;;;;;;;12.80;7.80;;;0.80;99.90;;;;;;5094431;28;20444;-88
2021/03/19 03:08:38;;;;;;;10.73;7.47;;;0.80;99.90;;;;;;5093368;28;20428;-79
2021/03/19 03:11:05;;;;;;;12.47;7.80;;;0.80;99.90;;;;;;5094201;28;20435;-87
2021/03/19 03:13:31;;;;;;;10.37;7.70;;;0.80;99.90;;;;;;5094435;28;20966;-88
2021/03/19 03:15:58;;;;;;;17.03;8.50;;;0.80;99.90;;;;;;5093921;28;20480;-85
2021/03/19 03:18:24;;;;;;;10.23;6.93;;;0.80;99.90;;;;;;5093747;28;20466;-78
2021/03/19 03:20:53;;;;;;;10.77;7.10;;;0.80;99.90;;;;;;5094467;28;20443;-85
2021/03/19 03:23:22;;;;;;;9.00;7.00;;;0.70;99.90;;;;;;5094107;28;20456;-85
2021/03/19 03:25:49;;;;;;;11.83;7.60;;;0.70;99.90;;;;;;5094103;28;20852;-85
2021/03/19 03:28:15;;;;;;;10.50;7.03;;;0.70;99.90;;;;;;5093986;28;20475;-85
2021/03/19 03:30:44;;;;;;;11.33;7.27;;;0.70;99.90;;;;;;5094024;28;20432;-81
2021/03/19 03:33:12;;;;;;;10.13;7.73;;;0.70;99.90;;;;;;5093612;28;20448;-79
2021/03/19 03:35:39;;;;;;;12.47;7.80;;;0.70;99.90;;;;;;5093613;28;20413;-78
2021/03/19 03:38:10;;;;;;;10.50;7.57;;;0.70;99.90;;;;;;5093566;28;20464;-78
2021/03/19 03:40:41;;;;;;;8.97;7.10;;;0.70;99.90;;;;;;5093464;28;20448;-87
2021/03/19 03:43:09;;;;;;;9.90;6.77;;;0.70;99.90;;;;;;5093829;28;20431;-87
2021/03/19 03:45:35;;;;;;;14.27;8.10;;;0.70;99.90;;;;;;5093739;28;20954;-78
2021/03/19 03:48:01;;;;;;;10.37;7.97;;;0.70;99.90;;;;;;5093428;28;20441;-78
2021/03/19 03:50:30;;;;;;;9.40;6.80;;;0.70;99.90;;;;;;5094304;28;20432;-88
2021/03/19 03:52:56;;;;;;;12.30;8.03;;;0.60;99.90;;;;;;5093713;28;20482;-85
2021/03/19 03:55:23;;;;;;;10.03;6.80;;;0.60;99.90;;;;;;5093760;28;20426;-85
2021/03/19 03:57:51;;;;;;;10.47;7.20;;;0.60;99.90;;;;;;5093123;28;20487;-85
2021/03/19 04:00:22;;;;;;;11.57;7.47;;;0.60;99.90;;;;;;5093330;28;20450;-85
2021/03/19 04:02:49;;;;;;;14.50;7.67;;;0.60;99.90;;;;;;5093501;28;20425;-85
2021/03/19 04:05:22;;;;;;;10.37;8.30;;;0.60;99.90;;;;;;5093594;28;20451;-87
2021/03/19 04:07:49;;;;;;;13.73;8.07;;;0.60;99.90;;;;;;5093532;28;20472;-79
2021/03/19 04:10:16;;;;;;;8.83;6.97;;;0.60;99.90;;;;;;5093325;28;20403;-79
2021/03/19 04:12:42;;;;;;;10.57;7.07;;;0.60;99.90;;;;;;5093772;28;20448;-87
2021/03/19 04:15:12;;;;;;;9.83;7.13;;;0.70;99.90;;;;;;5094073;28;20452;-88
2021/03/19 04:17:38;;;;;;;10.77;7.40;;;0.80;99.90;;;;;;5093472;28;20488;-85
2021/03/19 04:20:08;;;;;;;8.63;6.83;;;0.80;99.90;;;;;;5095592;28;20485;-85
2021/03/19 04:22:35;;;;;;;12.03;7.60;;;0.90;99.90;;;;;;5097606;28;20439;-85
2021/03/19 04:25:01;;;;;;;11.67;7.77;;;0.90;99.90;;;;;;5097531;28;20482;-85
2021/03/19 04:27:30;;;;;;;10.60;8.00;;;1.00;99.90;;;;;;5097389;28;20843;-85
2021/03/19 04:29:57;;;;;;;10.27;7.20;;;1.00;99.90;;;;;;5097432;28;20403;-85
2021/03/19 04:32:25;;;;;;;10.80;7.40;;;1.10;99.90;;;;;;5097473;28;20476;-85
2021/03/19 04:34:52;;;;;;;11.17;7.37;;;1.00;99.90;;;;;;5097747;28;20424;-85
2021/03/19 04:37:18;;;;;;;11.40;7.77;;;1.00;99.90;;;;;;5096814;28;20491;-79
2021/03/19 04:39:47;;;;;;;9.93;7.20;;;1.10;99.90;;;;;;5097050;28;20439;-79
2021/03/19 04:42:14;;;;;;;11.00;7.50;;;1.10;99.90;;;;;;5096992;28;20500;-85
2021/03/19 04:44:44;;;;;;;9.70;7.30;;;1.00;99.90;;;;;;5097411;28;20442;-85
2021/03/19 04:47:11;;;;;;;7.83;7.03;;;1.10;99.90;;;;;;5096798;28;20463;-79
2021/03/19 04:49:38;;;;;;;11.30;7.93;;;1.00;99.90;;;;;;5097018;28;20761;-85
2021/03/19 04:52:06;;;;;;;9.57;7.27;;;1.10;99.90;;;;;;5096842;28;20545;-85
2021/03/19 04:54:32;;;;;;;10.73;7.43;;;1.00;99.90;;;;;;5096954;28;20428;-85
2021/03/19 04:56:59;;;;;;;11.87;8.30;;;1.00;99.90;;;;;;5096748;28;20491;-85
2021/03/19 04:59:25;;;;;;;8.87;6.77;;;1.00;99.90;;;;;;5096979;28;20422;-79
2021/03/19 05:01:54;;;;;;;11.67;7.50;;;1.00;99.90;;;;;;5096566;28;20497;-79
2021/03/19 05:04:22;;;;;;;10.60;7.00;;;0.90;99.90;;;;;;5096352;28;20416;-79
2021/03/19 05:06:50;;;;;;;10.40;8.00;;;1.00;99.90;;;;;;5096333;28;20439;-79
2021/03/19 05:09:16;;;;;;;10.57;8.13;;;1.00;99.90;;;;;;5096408;28;20446;-79
2021/03/19 05:11:43;;;;;;;14.57;7.67;;;1.00;99.90;;;;;;5096508;28;20451;-88
2021/03/19 05:14:09;;;;;;;10.30;7.90;;;1.00;99.90;;;;;;5096952;28;20811;-88
2021/03/19 05:16:35;;;;;;;10.50;7.47;;;1.00;99.90;;;;;;5096746;28;20483;-79
2021/03/19 05:19:02;;;;;;;10.37;7.33;;;1.10;99.90;;;;;;5096412;28;20423;-85
2021/03/19 05:21:28;;;;;;;11.77;7.93;;;1.10;99.90;;;;;;5096446;28;20452;-85
2021/03/19 05:23:55;;;;;;;10.10;7.43;;;1.20;99.90;;;;;;5096196;28;20411;-85
2021/03/19 05:26:21;;;;;;;10.80;7.43;;;1.20;99.90;;;;;;5096294;28;20460;-85
2021/03/19 05:28:48;;;;;;;11.70;7.67;;;1.10;99.90;;;;;;5096262;28;20455;-84
2021/03/19 05:31:14;;;;;;;10.23;7.10;;;1.10;99.90;;;;;;5095805;28;20457;-84
2021/03/19 05:33:44;;;;;;;11.70;7.20;;;1.20;99.90;;;;;;5096288;28;20452;-84
2021/03/19 05:36:12;;;;;;;10.67;7.60;;;1.20;99.90;;;;;;5096200;28;20464;-84
2021/03/19 05:38:39;;;;;;;10.40;7.77;;;1.20;99.90;;;;;;5096275;28;20443;-84
2021/03/19 05:41:08;;;;;;;10.30;7.60;;;1.20;99.90;;;;;;5095989;28;20431;-77
2021/03/19 05:43:37;;;;;;;11.50;7.07;;;1.20;99.90;;;;;;5095764;28;20447;-77
2021/03/19 05:46:07;;;;;;;10.93;8.33;;;1.20;99.90;;;;;;5095733;28;20407;-77
2021/03/19 05:48:42;;;;;;;10.27;7.37;;;1.20;99.90;;;;;;5095626;28;20436;-84
2021/03/19 05:51:21;;;;;;;11.40;8.30;;;1.30;99.90;;;;;;5095687;28;20463;-83
2021/03/19 05:53:55;;;;;;;10.93;7.90;;;1.30;99.90;;;;;;5095729;28;20411;-84
2021/03/19 05:56:25;;;;;;;10.20;6.87;;;1.30;99.90;;;;;;5095587;28;20488;-84
2021/03/19 05:58:51;;;;;;;12.30;8.60;;;1.30;99.90;;;;;;5095326;28;20788;-84
2021/03/19 06:01:17;;;;;;;10.90;8.43;;;1.20;99.90;;;;;;5095717;28;20453;-84
2021/03/19 06:03:45;;;;;;;13.20;8.23;;;1.20;99.90;;;;;;5095812;28;20422;-88
2021/03/19 06:06:12;;;;;;;11.83;7.93;;;1.20;99.90;;;;;;5097206;28;20424;-88
2021/03/19 06:08:40;;;;;;;11.13;8.37;;;1.20;99.90;;;;;;5095567;28;20904;-77
2021/03/19 06:11:14;;;;;;;11.20;8.17;;;1.20;99.90;;;;;;5096041;28;20803;-88
2021/03/19 06:13:55;;;;;;;10.73;6.83;;;1.30;99.90;;;;;;5095852;28;20489;-89
2021/03/19 06:16:38;;;;;;;13.23;8.67;;;1.30;99.90;;;;;;5095390;28;20487;-78
2021/03/19 06:19:24;;;;;;;13.00;8.20;;;1.30;99.90;;;;;;5095458;28;20482;-80
2021/03/19 06:22:01;;;;;;;14.33;8.10;;;1.30;99.90;;;;;;5095054;28;20455;-79
2021/03/19 06:24:28;;;;;;;13.47;7.27;;;1.40;99.90;;;;;;5094677;28;20443;-79
2021/03/19 06:27:10;;;;;;;19.70;8.07;;;1.40;99.90;;;;;;5095040;28;20484;-85
2021/03/19 06:29:45;;;;;;;13.60;8.30;;;1.40;99.90;;;;;;5095247;28;20440;-89
2021/03/19 06:32:26;;;;;;;10.67;7.70;;;1.40;99.90;;;;;;5096173;28;20435;-89
2021/03/19 06:35:21;;;;;;;13.17;8.87;;;1.50;99.90;;;;;;5095872;28;20432;-85
2021/03/19 06:37:50;;;;;;;10.43;7.90;;;1.50;99.90;;;;;;5094866;28;20519;-85
2021/03/19 06:40:32;;;;;;;11.90;8.80;;;1.50;99.90;;;;;;5094694;28;20456;-78
2021/03/19 06:43:16;;;;;;;13.57;8.30;;;1.60;99.90;;;;;;5093850;28;20424;-90
2021/03/19 06:45:44;;;;;;;11.60;7.90;;;1.60;99.90;;;;;;5095460;28;20434;-89
2021/03/19 06:48:29;;;;;;;14.53;8.20;;;1.60;99.90;;;;;;5095870;28;20464;-89
2021/03/19 06:50:56;;;;;;;15.03;9.20;;;1.60;99.90;;;;;;5094323;28;20439;-80
2021/03/19 06:53:25;;;;;;;12.27;8.40;;;1.60;99.90;;;;;;5094697;28;20451;-79
2021/03/19 06:55:54;;;;;;;14.37;9.00;;;1.60;99.90;;;;;;5094468;28;20505;-79
2021/03/19 06:58:35;;;;;;;16.20;9.77;;;1.60;99.90;;;;;;5094579;28;20471;-85
2021/03/19 07:01:04;;;;;;;15.40;9.70;;;1.60;99.90;;;;;;5094521;28;20425;-85
2021/03/19 07:04:02;;;;;;;12.57;8.50;;;1.60;99.90;;;;;;5094460;28;20935;-85
2021/03/19 07:06:54;;;;;;;15.13;9.50;;;1.70;99.90;;;;;;5094325;28;20467;-79
2021/03/19 07:09:32;;;;;;;16.23;10.70;;;1.70;99.90;;;;;;5094180;28;20429;-79
2021/03/19 07:12:08;;;;;;;17.40;9.50;;;1.80;99.90;;;;;;5094103;28;20451;-79
2021/03/19 07:14:52;;;;;;;14.03;9.93;;;1.80;99.90;;;;;;5093795;28;20796;-79
2021/03/19 07:17:47;;;;;;;13.90;9.30;;;1.90;99.90;;;;;;5094166;28;20488;-89
2021/03/19 07:20:23;;;;;;;20.97;11.77;;;1.90;99.90;;;;;;5080499;28;20463;-79
2021/03/19 07:22:59;;;;;;;12.90;9.60;;;1.90;99.90;;;;;;5093654;28;20801;-84
2021/03/19 07:25:52;;;;;;;18.80;10.10;;;2.00;99.90;;;;;;5093944;28;20442;-80
2021/03/19 07:28:34;;;;;;;14.97;10.10;;;2.10;99.90;;;;;;5087851;28;20529;-80
2021/03/19 07:31:18;;;;;;;13.00;9.80;;;2.10;99.90;;;;;;5093529;28;20936;-80
2021/03/19 07:34:07;;;;;;;17.63;11.37;;;2.20;99.90;;;;;;5093487;28;20907;-80
2021/03/19 07:36:41;;;;;;;12.83;9.30;;;2.20;99.90;;;;;;5093308;28;20925;-80
2021/03/19 07:39:34;;;;;;;13.30;9.20;;;2.40;99.90;;;;;;5093704;28;20443;-79
2021/03/19 07:42:16;;;;;;;11.97;8.80;;;2.40;99.90;;;;;;5093736;28;20436;-79
2021/03/19 07:44:50;;;;;;;14.40;9.53;;;2.50;99.90;;;;;;5093343;28;20428;-79
2021/03/19 07:47:50;;;;;;;14.43;9.03;;;2.60;99.90;;;;;;5093588;28;20463;-85
2021/03/19 07:50:32;;;;;;;14.90;8.77;;;2.50;99.90;;;;;;5093621;28;20504;-84
2021/03/19 07:53:26;;;;;;;12.60;8.83;;;2.50;99.90;;;;;;5093136;28;20471;-84
2021/03/19 07:55:59;;;;;;;15.00;9.33;;;2.60;99.90;;;;;;5093443;28;20432;-83
2021/03/19 07:58:41;;;;;;;13.57;8.60;;;2.60;99.90;;;;;;5093665;28;20428;-77
2021/03/19 08:01:15;;;;;;;14.67;10.00;;;2.60;99.90;;;;;;5093885;28;20429;-77
2021/03/19 08:03:45;;;;;;;11.37;8.37;;;2.60;99.90;;;;;;5093461;28;20840;-77
2021/03/19 08:06:17;;;;;;;14.60;8.90;;;2.60;99.90;;;;;;5093026;28;20904;-78
2021/03/19 08:08:53;;;;;;;16.97;10.73;;;2.60;99.90;;;;;;5093354;28;20417;-78
2021/03/19 08:11:25;;;;;;;16.30;9.90;;;2.60;99.90;;;;;;5093293;28;20530;-83
2021/03/19 08:14:02;;;;;;;16.93;9.70;;;2.60;99.90;;;;;;5093453;28;20431;-84
2021/03/19 08:16:36;;;;;;;14.67;9.70;;;2.50;99.90;;;;;;5093255;28;20517;-84
2021/03/19 08:19:24;;;;;;;14.07;8.30;;;2.50;99.90;;;;;;5093473;28;20432;-77
2021/03/19 08:21:58;;;;;;;11.23;7.67;;;2.60;99.90;;;;;;5093267;28;20435;-77
2021/03/19 08:24:35;;;;;;;8.60;6.70;;;2.70;99.90;;;;;;5092978;28;20465;-77
2021/03/19 08:27:10;;;;;;;9.43;6.50;;;2.70;99.90;;;;;;5093252;28;20460;-76
2021/03/19 08:29:54;;;;;;;9.90;6.57;;;2.80;99.90;;;;;;5093198;28;20435;-77
2021/03/19 08:32:33;;;;;;;8.33;4.93;;;2.80;99.90;;;;;;5090975;28;20538;-76
2021/03/19 08:35:10;;;;;;;9.80;5.93;;;2.70;99.90;;;;;;5092846;28;20418;-77
2021/03/19 08:37:44;;;;;;;6.87;5.27;;;2.80;99.90;;;;;;5092946;28;20483;-76
2021/03/19 08:40:19;;;;;;;6.90;4.93;;;2.70;99.90;;;;;;5093020;28;20436;-83
2021/03/19 08:42:51;;;;;;;7.47;5.73;;;2.80;99.90;;;;;;5092700;28;20428;-83
2021/03/19 08:45:22;;;;;;;7.50;5.40;;;2.80;99.90;;;;;;5092734;28;20423;-78
2021/03/19 08:47:53;;;;;;;8.80;6.03;;;2.90;99.90;;;;;;5092896;28;20459;-78
2021/03/19 08:50:27;;;;;;;8.60;5.53;;;2.90;99.90;;;;;;5093342;28;20546;-89
2021/03/19 08:53:13;;;;;;;9.23;5.70;;;3.10;99.90;;;;;;5093802;28;20472;-89
2021/03/19 08:55:41;;;;;;;8.37;5.90;;;3.10;99.90;;;;;;5093758;28;20433;-79
2021/03/19 08:58:49;;;;;;;8.07;5.90;;;3.00;99.90;;;;;;5092745;28;20491;-79
2021/03/19 09:01:47;;;;;;;11.60;6.70;;;3.00;99.90;;;;;;5011047;28;20448;-90
2021/03/19 09:04:14;;;;;;;8.40;5.93;;;3.10;99.90;;;;;;5012165;28;20951;-89
2021/03/19 09:07:22;;;;;;;10.87;6.57;;;3.00;99.90;;;;;;5071582;28;20509;-89
2021/03/19 09:09:49;;;;;;;12.70;6.63;;;3.00;99.90;;;;;;5097538;28;20440;-89
2021/03/19 09:12:18;;;;;;;9.37;6.17;;;3.00;99.90;;;;;;5096593;28;20454;-84
2021/03/19 09:15:29;;;;;;;11.07;6.60;;;3.00;99.90;;;;;;5096513;28;20431;-79
2021/03/19 09:17:59;;;;;;;10.30;6.27;;;3.00;99.90;;;;;;5096222;28;20499;-79
2021/03/19 09:20:38;;;;;;;11.37;6.73;;;3.10;99.90;;;;;;5096936;28;20432;-84
2021/03/19 09:23:16;;;;;;;9.87;5.80;;;3.10;99.90;;;;;;5096352;28;20432;-85
2021/03/19 09:25:46;;;;;;;7.60;5.33;;;3.10;99.90;;;;;;5096228;28;20428;-78
2021/03/19 09:28:23;;;;;;;10.23;5.70;;;3.10;99.90;;;;;;5095783;28;21020;-80
2021/03/19 09:30:54;;;;;;;7.67;4.80;;;3.00;99.90;;;;;;5096084;28;20475;-79
2021/03/19 09:33:58;;;;;;;6.30;5.10;;;3.00;99.90;;;;;;5095810;28;20433;-79
2021/03/19 09:36:52;;;;;;;7.23;5.50;;;3.10;99.90;;;;;;5095878;28;20464;-80
2021/03/19 09:39:59;;;;;;;9.40;6.50;;;3.00;99.90;;;;;;5095869;28;20480;-79
2021/03/19 09:42:42;;;;;;;11.20;6.13;;;2.90;99.90;;;;;;5089068;28;20455;-78
2021/03/19 09:45:35;;;;;;;13.50;6.83;;;2.90;99.90;;;;;;5095519;28;20919;-79
2021/03/19 09:48:34;;;;;;;11.20;7.40;;;3.00;99.90;;;;;;5095670;28;20456;-79
2021/03/19 09:51:34;;;;;;;15.20;8.63;;;3.10;99.90;;;;;;5095520;28;20492;-80
2021/03/19 09:56:55;;;;;;;12.57;8.17;;;3.10;99.90;;;;;;5120645;27;725533;-79
2021/03/19 09:59:25;;;;;;;13.90;8.20;;;3.10;99.90;;;;;;5131391;28;20562;-79
2021/03/19 10:01:52;;;;;;;14.33;8.80;;;3.10;99.90;;;;;;5131379;28;20791;-78
2021/03/19 10:04:32;;;;;;;15.10;8.80;;;3.10;99.90;;;;;;5131700;28;20427;-78
2021/03/19 10:07:00;;;;;;;14.63;9.00;;;3.10;99.90;;;;;;5131500;27;20470;-78
2021/03/19 10:09:28;;;;;;;15.37;8.23;;;3.10;99.90;;;;;;5131515;28;20485;-78
2021/03/19 10:12:13;;;;;;;13.00;8.07;;;3.10;99.90;;;;;;5131556;28;20426;-77
2021/03/19 10:14:42;;;;;;;13.67;9.10;;;2.90;99.90;;;;;;5131159;28;20432;-77
2021/03/19 10:17:25;;;;;;;15.50;8.43;;;2.90;99.90;;;;;;5131295;27;20462;-77
2021/03/19 10:19:57;;;;;;;12.50;7.90;;;2.90;99.90;;;;;;5133232;28;20882;-87
2021/03/19 10:22:37;;;;;;;11.20;7.43;;;3.00;99.90;;;;;;5133027;28;20458;-78
2021/03/19 10:25:17;;;;;;;13.87;8.20;;;3.30;99.90;;;;;;5133426;28;20466;-88
2021/03/19 10:27:46;;;;;;;15.73;7.90;;;3.60;99.90;;;;;;5132195;27;20469;-77
2021/03/19 10:30:18;;;;;;;11.57;8.00;;;3.80;99.90;;;;;;5131831;28;20438;-87
2021/03/19 10:32:45;;;;;;;12.67;7.80;;;4.10;99.90;;;;;;5130805;28;20422;-77
2021/03/19 10:35:19;;;;;;;11.67;7.97;;;4.80;99.90;;;;;;5131183;28;20427;-85
2021/03/19 10:37:51;;;;;;;10.60;7.60;;;5.70;99.90;;;;;;5131022;27;20470;-85
2021/03/19 10:40:24;;;;;;;9.07;6.10;;;6.80;99.90;;;;;;5130839;28;20414;-78
2021/03/19 10:42:55;;;;;;;8.30;6.00;;;7.90;99.90;;;;;;5131254;28;20430;-77
2021/03/19 10:45:33;;;;;;;7.50;5.60;;;9.30;99.90;;;;;;5130779;28;20462;-78
2021/03/19 10:48:11;;;;;;;8.20;6.00;;;10.30;99.90;;;;;;5130493;27;20473;-79
2021/03/19 10:50:43;;;;;;;8.20;6.00;;;11.40;98.80;;;;;;5131265;28;20431;-79
2021/03/19 10:53:15;;;;;;;6.60;5.87;;;12.40;93.80;;;;;;5130697;28;20441;-79
2021/03/19 10:55:47;;;;;;;7.10;5.47;;;11.90;89.30;;;;;;5130429;28;20561;-79
2021/03/19 10:58:33;;;;;;;7.13;5.80;;;10.70;88.10;;;;;;5130599;27;20466;-86
2021/03/19 11:01:00;;;;;;;7.67;5.50;;;9.80;91.60;;;;;;5130826;28;20789;-79
2021/03/19 11:03:39;;;;;;;6.20;5.40;;;8.90;93.00;;;;;;5130465;28;20529;-79
2021/03/19 11:06:08;;;;;;;6.27;5.67;;;7.90;94.50;;;;;;5129046;28;20844;-79
2021/03/19 11:08:35;;;;;;;5.60;4.80;;;7.30;97.60;;;;;;5116393;28;20607;-79
2021/03/19 11:11:02;;;;;;;5.90;5.30;;;6.70;99.90;;;;;;5117136;28;20435;-88
2021/03/19 11:13:31;;;;;;;8.10;5.40;;;6.30;99.90;;;;;;5117452;28;20427;-88
2021/03/19 11:15:59;;;;;;;6.87;4.30;;;5.90;99.90;;;;;;5117439;28;20423;-87
2021/03/19 11:18:30;;;;;;;5.47;4.40;;;5.60;99.90;;;;;;5117278;28;20470;-89
2021/03/19 11:20:59;;;;;;;5.70;4.50;;;5.20;99.90;;;;;;5117188;28;20435;-80
2021/03/19 11:23:34;;;;;;;6.00;3.93;;;4.80;99.90;;;;;;5117159;28;20431;-89
2021/03/19 11:26:01;;;;;;;6.37;4.50;;;4.60;99.90;;;;;;5116784;28;20470;-86
2021/03/19 11:28:39;;;;;;;7.10;4.77;;;4.20;99.90;;;;;;5116407;28;20435;-85
2021/03/19 11:31:19;;;;;;;8.63;5.00;;;3.70;99.90;;;;;;5115920;28;20435;-85
2021/03/19 11:33:54;;;;;;;8.00;5.03;;;3.40;99.90;;;;;;5116202;28;20431;-84
2021/03/19 11:36:21;;;;;;;8.53;5.40;;;3.20;99.90;;;;;;5115845;28;20974;-84
2021/03/19 11:38:47;;;;;;;8.30;5.53;;;3.10;99.90;;;;;;5116107;28;20431;-84
2021/03/19 11:41:30;;;;;;;7.20;5.50;;;3.10;99.90;;;;;;5116055;28;20480;-85
2021/03/19 11:43:58;;;;;;;6.83;4.37;;;3.20;99.90;;;;;;5115981;28;20435;-85
2021/03/19 11:46:29;;;;;;;5.97;4.60;;;3.20;99.90;;;;;;5115882;28;20493;-81
2021/03/19 11:48:56;;;;;;;6.30;4.87;;;3.30;99.90;;;;;;5115928;28;20497;-80
2021/03/19 11:51:31;;;;;;;5.00;4.03;;;3.40;99.90;;;;;;5115986;28;20435;-86
2021/03/19 11:53:59;;;;;;;5.20;4.47;;;3.50;99.90;;;;;;5115852;28;20910;-81
2021/03/19 11:56:26;;;;;;;9.97;5.33;;;3.60;99.90;;;;;;5115331;28;20481;-81
2021/03/19 11:58:52;;;;;;;4.63;4.00;;;3.70;99.90;;;;;;5117257;28;20438;-93
2021/03/19 12:01:21;;;;;;;4.63;3.70;;;3.70;99.90;;;;;;5118739;28;20432;-92
2021/03/19 12:03:49;;;;;;;5.07;4.53;;;3.60;99.90;;;;;;5118259;28;20427;-92
2021/03/19 12:06:18;;;;;;;5.03;4.30;;;3.60;99.90;;;;;;5116953;28;20467;-92
2021/03/19 12:08:46;;;;;;;8.00;4.07;;;3.60;99.90;;;;;;5117166;28;20431;-92
2021/03/19 12:11:20;;;;;;;5.97;4.20;;;3.50;99.90;;;;;;5116597;28;20481;-92
2021/03/19 12:13:47;;;;;;;4.37;3.60;;;3.50;99.90;;;;;;5116495;28;20431;-92
2021/03/19 12:16:13;;;;;;;5.27;3.87;;;3.50;99.90;;;;;;5115475;28;20434;-81
2021/03/19 12:18:40;;;;;;;5.10;3.70;;;3.50;99.90;;;;;;5114041;28;20428;-81
2021/03/19 12:21:06;;;;;;;6.17;4.07;;;3.40;99.90;;;;;;5116103;28;20443;-92
2021/03/19 12:23:33;;;;;;;6.17;4.33;;;3.30;99.90;;;;;;5116522;28;20898;-91
2021/03/19 12:25:59;;;;;;;6.90;4.90;;;3.30;99.90;;;;;;5116005;28;20469;-91
2021/03/19 12:28:25;;;;;;;5.50;4.03;;;3.30;99.90;;;;;;5116326;28;20446;-91
2021/03/19 12:30:53;;;;;;;4.30;3.77;;;3.20;99.90;;;;;;5116170;28;20427;-91
2021/03/19 12:33:21;;;;;;;5.50;4.30;;;3.30;99.90;;;;;;5116121;28;20442;-91
2021/03/19 12:35:49;;;;;;;4.87;3.70;;;3.60;99.90;;;;;;5116320;28;20423;-91
2021/03/19 12:38:16;;;;;;;7.93;4.20;;;3.80;99.90;;;;;;5116038;28;20472;-91
2021/03/19 12:40:43;;;;;;;7.80;4.57;;;4.00;99.90;;;;;;5116037;28;20451;-91
2021/03/19 12:43:11;;;;;;;7.67;4.57;;;4.10;99.90;;;;;;5116157;28;20431;-90
2021/03/19 12:45:38;;;;;;;5.53;4.33;;;3.90;99.90;;;;;;5115865;28;20536;-91
2021/03/19 12:48:06;;;;;;;7.33;4.97;;;3.80;99.90;;;;;;5115841;28;20970;-91
2021/03/19 12:50:33;;;;;;;6.43;4.37;;;3.70;99.90;;;;;;5115986;28;20427;-91
2021/03/19 12:53:03;;;;;;;7.17;4.57;;;3.50;99.90;;;;;;5115845;28;20436;-91
2021/03/19 12:55:32;;;;;;;7.40;5.33;;;3.40;99.90;;;;;;5115487;28;20478;-91
2021/03/19 12:57:58;;;;;;;8.90;5.30;;;3.30;99.90;;;;;;5115562;28;20879;-91
2021/03/19 13:00:28;;;;;;;10.40;6.07;;;3.20;99.90;;;;;;5115737;28;20453;-91
2021/03/19 13:02:54;;;;;;;8.57;4.73;;;3.20;99.90;;;;;;5115794;28;20435;-91
2021/03/19 13:05:22;;;;;;;9.47;6.37;;;3.10;99.90;;;;;;5115432;28;20481;-91
2021/03/19 13:07:49;;;;;;;10.20;6.20;;;3.00;99.90;;;;;;5115599;28;20458;-91
2021/03/19 13:10:18;;;;;;;12.80;6.80;;;3.00;99.90;;;;;;5115441;28;20443;-91
2021/03/19 13:12:44;;;;;;;13.60;8.33;;;3.00;99.90;;;;;;5115368;28;20504;-91
2021/03/19 13:15:13;;;;;;;11.67;7.50;;;3.00;99.90;;;;;;5115525;28;20431;-90
2021/03/19 13:17:40;;;;;;;12.80;6.77;;;3.00;99.90;;;;;;5115221;28;20459;-91
2021/03/19 13:20:09;;;;;;;12.67;7.40;;;3.00;99.90;;;;;;5115254;28;20439;-90
2021/03/19 13:22:35;;;;;;;15.33;8.47;;;3.00;99.90;;;;;;5115172;28;20462;-90
2021/03/19 13:25:02;;;;;;;14.53;8.20;;;2.90;99.90;;;;;;5114363;28;20484;-90